Accueil
METAR-TAF:

METAR-TAF

Aéroports :

Aéroport de Brive-Vallée de la Dordogne

Brive-la-Gaillarde, France

latitude: 45-02-28N, longitude: 001-28-59E, altitude: 311 m

Observation

Le bulletin a été fait il y a 28 minutes, à 03:00 UTC
Vent 3 kt de sud-ouest, variant entre sud et ouest
Température 16°C
Humidité 88%
Pression 1013 hPa
Visibilité 10 km ou plus
Quelques nuages à une hauteur de 1600 ft
Nuages fragmentés à une hauteur de 4800 ft
Ciel couvert à une hauteur de 19000 ft

METAR: LFSL 060300Z AUTO 22003KT 180V260 9999 FEW016 BKN048 OVC190 16/14 Q1013 NOSIG

Heure: 05:28 (03:28 UTC)

Prévision

Le bulletin a été fait il y a 1 heure et 28 minutes, à 02:00 UTC
Prévision valable du 06 à 03 UTC au 06 à 12 UTC
Vent 4 kt de sud-ouest
Visibilité 10 km ou plus
Nuages fragmentés à une hauteur de 3000 ft

TAF: LFSL 060200Z 0603/0612 23004KT 9999 BKN030

Observations et prévisions météorologiques de plus de 4000 aéroports (messages METAR et TAF).

Les stations disponibles sont représentées par des disques jaunes et rouges sur la carte.

Passer la souris dessus pour voir le nom de la station.

Cliquer dessus pour voir les observations et prévisions météorologiques.

Pour changer de carte: cliquez sur les boutons verts avec une croix noire pour zoomer, sur le bouton vert avec un tiret pour effectuer un zoom arrière, ou sur les flèches vertes pour les cartes adjacentes.


METAR-TAF: